| time (UTC) | temp F | wind direction | speed MPH | gust MPH | rain 1hr in | rain 24hr in | rain mn in | humidity % | barometer mb |
| 20260502214058 | 64 | 209 | 11.0 | 18.0 | 0.00 | 0.00 | 0.00 | 35 | |
| 20260502213555 | 62 | 191 | 5.0 | 9.0 | 0.00 | 0.00 | 0.00 | 34 | |
| 20260502213053 | 63 | 211 | 7.0 | 13.0 | 0.00 | 0.00 | 0.00 | 33 | |
| 20260502212552 | 62 | 224 | 4.0 | 14.0 | 0.00 | 0.00 | 0.00 | 33 | |
| 20260502212049 | 63 | 176 | 6.0 | 11.0 | 0.00 | 0.00 | 0.00 | 32 | |
| 20260502211544 | 63 | 211 | 10.0 | 17.0 | 0.00 | 0.00 | 0.00 | 34 | |
| 20260502211042 | 63 | 202 | 6.0 | 8.0 | 0.00 | 0.00 | 0.00 | 36 | |
| 20260502210538 | 62 | 194 | 6.0 | 9.0 | 0.00 | 0.00 | 0.00 | 35 | |
| 20260502210036 | 62 | 185 | 9.0 | 10.0 | 0.00 | 0.00 | 0.00 | 33 | |
| 20260502205532 | 62 | 203 | 4.0 | 5.0 | 0.00 | 0.00 | 0.00 | 35 | |
| 20260502205029 | 61 | 222 | 7.0 | 14.0 | 0.00 | 0.00 | 0.00 | 34 | |
| 20260502204526 | 61 | 233 | 8.0 | 9.0 | 0.00 | 0.00 | 0.00 | 36 | |
| 20260502204024 | 60 | 186 | 4.0 | 9.0 | 0.00 | 0.00 | 0.00 | 35 | |
| 20260502203521 | 61 | 241 | 5.0 | 7.0 | 0.00 | 0.00 | 0.00 | 35 | |
| 20260502203018 | 63 | 202 | 3.0 | 10.0 | 0.00 | 0.00 | 0.00 | 33 | |
| 20260502202514 | 62 | 209 | 11.0 | 14.0 | 0.00 | 0.00 | 0.00 | 34 | |
| 20260502202013 | 62 | 171 | 10.0 | 17.0 | 0.00 | 0.00 | 0.00 | 35 | |
| 20260502201508 | 62 | 216 | 3.0 | 8.0 | 0.00 | 0.00 | 0.00 | 33 | |
| 20260502201004 | 62 | 233 | 7.0 | 9.0 | 0.00 | 0.00 | 0.00 | 34 | |
| 20260502200500 | 61 | 200 | 6.0 | 8.0 | 0.00 | 0.00 | 0.00 | 34 | |
| 20260502195958 | 61 | 224 | 10.0 | 16.0 | 0.00 | 0.00 | 0.00 | 32 | |
| 20260502195456 | 60 | 200 | 6.0 | 10.0 | 0.00 | 0.00 | 0.00 | 33 | |
| 20260502194951 | 60 | 230 | 6.0 | 13.0 | 0.00 | 0.00 | 0.00 | 31 | |
| 20260502194449 | 60 | 165 | 7.0 | 10.0 | 0.00 | 0.00 | 0.00 | 32 | |
| 20260502193944 | 60 | 229 | 5.0 | 8.0 | 0.00 | 0.00 | 0.00 | 32 | |
| 20260502193442 | 60 | 273 | 10.0 | 14.0 | 0.00 | 0.00 | 0.00 | 31 | |
| 20260502192937 | 60 | 135 | 8.0 | 15.0 | 0.00 | 0.00 | 0.00 | 31 | |
| 20260502192434 | 60 | 218 | 5.0 | 6.0 | 0.00 | 0.00 | 0.00 | 30 | |
| 20260502191931 | 60 | 199 | 8.0 | 14.0 | 0.00 | 0.00 | 0.00 | 30 | |
| 20260502191429 | 60 | 215 | 6.0 | 7.0 | 0.00 | 0.00 | 0.00 | 31 | |
| 20260502190927 | 60 | 202 | 6.0 | 9.0 | 0.00 | 0.00 | 0.00 | 30 | |
| 20260502190424 | 59 | 237 | 7.0 | 10.0 | 0.00 | 0.00 | 0.00 | 29 | |
| 20260502185920 | 59 | 232 | 5.0 | 8.0 | 0.00 | 0.00 | 0.00 | 31 | |
| 20260502185415 | 60 | 102 | 9.0 | 16.0 | 0.00 | 0.00 | 0.00 | 31 | |
| 20260502184912 | 59 | 158 | 5.0 | 11.0 | 0.00 | 0.00 | 0.00 | 29 | |
| 20260502184251 | 57 | 157 | 11.0 | 15.0 | 0.00 | 0.00 | 0.00 | 32 | |
| 20260502183748 | 57 | 157 | 11.0 | 15.0 | 0.00 | 0.00 | 0.00 | 32 | |
| 20260502183244 | 57 | 157 | 11.0 | 15.0 | 0.00 | 0.00 | 0.00 | 32 | |
| 20260502182739 | 59 | 203 | 10.0 | 11.0 | 0.00 | 0.00 | 0.00 | 31 | |
| 20260502182235 | 59 | 235 | 9.0 | 11.0 | 0.00 | 0.00 | 0.00 | 33 | |
| 20260502181732 | 58 | 168 | 6.0 | 9.0 | 0.00 | 0.00 | 0.00 | 33 | |
| 20260502181232 | 58 | 213 | 6.0 | 9.0 | 0.00 | 0.00 | 0.00 | 33 | |
| 20260502180728 | 57 | 163 | 7.0 | 14.0 | 0.00 | 0.00 | 0.00 | 32 | |
| 20260502180226 | 58 | 233 | 9.0 | 11.0 | 0.00 | 0.00 | 0.00 | 33 | |
| 20260502170150 | 56 | 199 | 12.0 | 18.0 | 0.00 | 0.00 | 0.00 | 33 | |
| 20260502164136 | 55 | 175 | 7.0 | 9.0 | 0.00 | 0.00 | 0.00 | 35 | |
| 20260502163632 | 56 | 206 | 4.0 | 9.0 | 0.00 | 0.00 | 0.00 | 36 | |
| 20260502163129 | 55 | 216 | 6.0 | 10.0 | 0.00 | 0.00 | 0.00 | 34 | |
| 20260502162626 | 54 | 200 | 5.0 | 8.0 | 0.00 | 0.00 | 0.00 | 33 | |
| 20260502162123 | 55 | 191 | 12.0 | 16.0 | 0.00 | 0.00 | 0.00 | 33 | |
| 20260502161620 | 56 | 215 | 10.0 | 14.0 | 0.00 | 0.00 | 0.00 | 34 | |
| 20260502161117 | 54 | 206 | 5.0 | 10.0 | 0.00 | 0.00 | 0.00 | 35 | |
| 20260502160615 | 55 | 198 | 8.0 | 13.0 | 0.00 | 0.00 | 0.00 | 35 | |
| 20260502160114 | 54 | 214 | 11.0 | 13.0 | 0.00 | 0.00 | 0.00 | 35 | |
| 20260502152028 | 54 | 212 | 8.0 | 15.0 | 0.00 | 0.00 | 0.00 | 35 | |
| 20260502151525 | 53 | 205 | 8.0 | 13.0 | 0.00 | 0.00 | 0.00 | 37 | |
| 20260502151022 | 53 | 201 | 5.0 | 9.0 | 0.00 | 0.00 | 0.00 | 37 | |
| 20260502150520 | 52 | 249 | 9.0 | 13.0 | 0.00 | 0.00 | 0.00 | 37 | |
| 20260502130404 | 44 | 145 | 4.0 | 6.0 | 0.00 | 0.00 | 0.00 | 52 | |
| 20260502123347 | 41 | 173 | 6.0 | 9.0 | 0.00 | 0.00 | 0.00 | 53 | |
| 20260502122844 | 41 | 186 | 5.0 | 7.0 | 0.00 | 0.00 | 0.00 | 53 | |
| 20260502122339 | 41 | 197 | 4.0 | 7.0 | 0.00 | 0.00 | 0.00 | 53 | |
| 20260502121839 | 41 | 182 | 5.0 | 8.0 | 0.00 | 0.00 | 0.00 | 53 | |
| 20260502121335 | 40 | 192 | 5.0 | 9.0 | 0.00 | 0.00 | 0.00 | 54 | |
| 20260502120833 | 40 | 190 | 6.0 | 9.0 | 0.00 | 0.00 | 0.00 | 54 | |
| 20260502120329 | 40 | 172 | 8.0 | 9.0 | 0.00 | 0.00 | 0.00 | 55 | |
| 20260502115826 | 40 | 196 | 4.0 | 9.0 | 0.00 | 0.00 | 0.00 | 55 | |
| 20260502115323 | 39 | 179 | 5.0 | 7.0 | 0.00 | 0.00 | 0.00 | 56 | |
| 20260502114820 | 39 | 169 | 5.0 | 7.0 | 0.00 | 0.00 | 0.00 | 57 | |
| 20260502114317 | 39 | 195 | 5.0 | 6.0 | 0.00 | 0.00 | 0.00 | 57 | |
| 20260502113814 | 39 | 180 | 3.0 | 8.0 | 0.00 | 0.00 | 0.00 | 59 | |
| 20260502113311 | 39 | 171 | 7.0 | 9.0 | 0.00 | 0.00 | 0.00 | 61 | |
| 20260502112809 | 38 | 184 | 7.0 | 9.0 | 0.00 | 0.00 | 0.00 | 63 | |
| 20260502112306 | 38 | 188 | 5.0 | 6.0 | 0.00 | 0.00 | 0.00 | 64 | |
| 20260502111803 | 38 | 167 | 4.0 | 8.0 | 0.00 | 0.00 | 0.00 | 64 | |
| 20260502111301 | 37 | 186 | 4.0 | 6.0 | 0.00 | 0.00 | 0.00 | 63 | |
| 20260502110758 | 37 | 189 | 3.0 | 6.0 | 0.00 | 0.00 | 0.00 | 64 | |
| 20260502110256 | 37 | 161 | 3.0 | 7.0 | 0.00 | 0.00 | 0.00 | 64 | |
| 20260502105754 | 37 | 178 | 5.0 | 8.0 | 0.00 | 0.00 | 0.00 | 64 | |
| 20260502105250 | 37 | 191 | 3.0 | 6.0 | 0.00 | 0.00 | 0.00 | 64 | |
| 20260502104748 | 37 | 192 | 4.0 | 7.0 | 0.00 | 0.00 | 0.00 | 64 | |
| 20260502104245 | 37 | 187 | 4.0 | 6.0 | 0.00 | 0.00 | 0.00 | 64 | |
| 20260502103742 | 38 | 169 | 4.0 | 8.0 | 0.00 | 0.00 | 0.00 | 65 | |
| 20260502103240 | 38 | 195 | 8.0 | 9.0 | 0.00 | 0.00 | 0.00 | 66 | |
| 20260502102738 | 38 | 195 | 6.0 | 8.0 | 0.00 | 0.00 | 0.00 | 66 | |
| 20260502102233 | 37 | 185 | 6.0 | 8.0 | 0.00 | 0.00 | 0.00 | 66 | |
| 20260502101732 | 37 | 195 | 5.0 | 7.0 | 0.00 | 0.00 | 0.00 | 66 | |
| 20260502101230 | 37 | 198 | 5.0 | 7.0 | 0.00 | 0.00 | 0.00 | 66 | |
| 20260502100727 | 37 | 190 | 7.0 | 8.0 | 0.00 | 0.00 | 0.00 | 66 | |
| 20260502100226 | 37 | 179 | 5.0 | 6.0 | 0.00 | 0.00 | 0.00 | 64 | |
| 20260502091200 | 38 | 194 | 5.0 | 7.0 | 0.00 | 0.00 | 0.00 | 63 | |
| 20260502090657 | 38 | 212 | 5.0 | 7.0 | 0.00 | 0.00 | 0.00 | 63 | |
| 20260502090154 | 39 | 199 | 6.0 | 10.0 | 0.00 | 0.00 | 0.00 | 62 | |
| 20260502071055 | 38 | 192 | 3.0 | 3.0 | 0.00 | 0.00 | 0.00 | 60 | |
| 20260502070553 | 38 | 191 | 2.0 | 5.0 | 0.00 | 0.00 | 0.00 | 59 | |
| 20260502070051 | 38 | 194 | 1.0 | 5.0 | 0.00 | 0.00 | 0.00 | 59 | |
| 20260502065549 | 38 | 174 | 2.0 | 3.0 | 0.00 | 0.00 | 0.00 | 59 | |
| 20260502065046 | 38 | 184 | 2.0 | 6.0 | 0.00 | 0.00 | 0.00 | 59 | |
| 20260502064545 | 38 | 192 | 1.0 | 3.0 | 0.00 | 0.00 | 0.00 | 59 | |
| 20260502064041 | 38 | 189 | 1.0 | 3.0 | 0.00 | 0.00 | 0.00 | 58 | |
| 20260502063539 | 38 | 204 | 1.0 | 3.0 | 0.00 | 0.00 | 0.00 | 58 | |
| 20260502063037 | 38 | 196 | 1.0 | 2.0 | 0.00 | 0.00 | 0.00 | 57 | |
| 20260502062534 | 39 | 185 | 2.0 | 3.0 | 0.00 | 0.00 | 0.00 | 57 | |
| 20260502062032 | 39 | 198 | 1.0 | 2.0 | 0.00 | 0.00 | 0.00 | 56 | |
| 20260502061530 | 39 | 194 | 2.0 | 3.0 | 0.00 | 0.00 | 0.00 | 56 | |
| 20260502061026 | 39 | 189 | 1.0 | 2.0 | 0.00 | 0.00 | 0.00 | 55 | |
| 20260502060522 | 39 | 195 | 1.0 | 2.0 | 0.00 | 0.00 | 0.00 | 55 | |
| 20260502060019 | 39 | 183 | 2.0 | 2.0 | 0.00 | 0.00 | 0.00 | 55 | |
| 20260502055516 | 39 | 196 | 1.0 | 1.0 | 0.00 | 0.00 | 0.00 | 55 | |
| 20260502055015 | 39 | 191 | 1.0 | 2.0 | 0.00 | 0.00 | 0.00 | 55 | |
| 20260502054513 | 39 | 192 | 1.0 | 2.0 | 0.00 | 0.00 | 0.00 | 55 | |
| 20260502054010 | 39 | 192 | 1.0 | 2.0 | 0.00 | 0.00 | 0.00 | 55 | |
| 20260502053507 | 38 | 193 | 1.0 | 1.0 | 0.00 | 0.00 | 0.00 | 55 | |
| 20260502053005 | 39 | 197 | 0.0 | 1.0 | 0.00 | 0.00 | 0.00 | 55 | |
| 20260502052503 | 39 | 192 | 1.0 | 2.0 | 0.00 | 0.00 | 0.00 | 55 | |
| 20260502052001 | 39 | 191 | 1.0 | 1.0 | 0.00 | 0.00 | 0.00 | 54 | |
| 20260502051458 | 39 | 204 | 1.0 | 2.0 | 0.00 | 0.00 | 0.00 | 53 | |
| 20260502050955 | 40 | 191 | 2.0 | 3.0 | 0.00 | 0.00 | 0.00 | 53 | |
| 20260502050452 | 39 | 192 | 1.0 | 2.0 | 0.00 | 0.00 | 0.00 | 54 | |
| 20260502045949 | 39 | 194 | 1.0 | 1.0 | 0.00 | 0.00 | 0.00 | 55 | |
| 20260502045446 | 39 | 193 | 2.0 | 3.0 | 0.00 | 0.00 | 0.00 | 56 | |
| 20260502044943 | 38 | 190 | 0.0 | 1.0 | 0.00 | 0.00 | 0.00 | 55 | |
| 20260502044438 | 39 | 191 | 0.0 | 1.0 | 0.00 | 0.00 | 0.00 | 53 | |
| 20260502043936 | 40 | 182 | 0.0 | 2.0 | 0.00 | 0.00 | 0.00 | 52 | |
| 20260502043433 | 40 | 196 | 0.0 | 1.0 | 0.00 | 0.00 | 0.00 | 53 | |
| 20260502042932 | 40 | 199 | 1.0 | 2.0 | 0.00 | 0.00 | 0.00 | 52 | |
| 20260502042430 | 41 | 190 | 1.0 | 2.0 | 0.00 | 0.00 | 0.00 | 51 | |
| 20260502041927 | 40 | 189 | 1.0 | 2.0 | 0.00 | 0.00 | 0.00 | 51 | |
| 20260502041425 | 41 | 196 | 1.0 | 2.0 | 0.00 | 0.00 | 0.00 | 53 | |
| 20260502040922 | 40 | 197 | 1.0 | 2.0 | 0.00 | 0.00 | 0.00 | 55 | |
| 20260502040418 | 40 | 196 | 0.0 | 0.0 | 0.00 | 0.00 | 0.00 | 55 | |
| 20260502035914 | 40 | 192 | 0.0 | 1.0 | 0.00 | 0.00 | 0.00 | 55 | |
| 20260502035411 | 40 | 196 | 0.0 | 0.0 | 0.00 | 0.00 | 0.00 | 54 | |
| 20260502034909 | 40 | 192 | 0.0 | 1.0 | 0.00 | 0.00 | 0.00 | 54 | |
| 20260502034407 | 40 | 192 | 0.0 | 1.0 | 0.00 | 0.00 | 0.00 | 54 | |
| 20260502033905 | 40 | 192 | 0.0 | 1.0 | 0.00 | 0.00 | 0.00 | 55 | |
| 20260502033403 | 40 | 193 | 1.0 | 2.0 | 0.00 | 0.00 | 0.00 | 55 | |
| 20260502032859 | 39 | 193 | 1.0 | 2.0 | 0.00 | 0.00 | 0.00 | 55 | |
| 20260502032355 | 40 | 190 | 1.0 | 1.0 | 0.00 | 0.00 | 0.00 | 55 | |
| 20260502031853 | 41 | 190 | 1.0 | 1.0 | 0.00 | 0.00 | 0.00 | 55 | |
| 20260502031351 | 41 | 196 | 1.0 | 1.0 | 0.00 | 0.00 | 0.00 | 55 | |
| 20260502030849 | 42 | 197 | 1.0 | 1.0 | 0.00 | 0.00 | 0.00 | 54 | |
| 20260502030347 | 42 | 198 | 0.0 | 0.0 | 0.00 | 0.00 | 0.00 | 53 | |
| 20260502025844 | 43 | 198 | 0.0 | 0.0 | 0.00 | 0.00 | 0.00 | 51 | |
| 20260502025341 | 43 | 198 | 1.0 | 1.0 | 0.00 | 0.00 | 0.00 | 51 | |
| 20260502024839 | 43 | 197 | 1.0 | 1.0 | 0.00 | 0.00 | 0.00 | 51 | |
| 20260502024337 | 43 | 199 | 1.0 | 1.0 | 0.00 | 0.00 | 0.00 | 52 | |
| 20260502023834 | 43 | 199 | 1.0 | 1.0 | 0.00 | 0.00 | 0.00 | 53 | |
| 20260502023332 | 43 | 198 | 0.0 | 1.0 | 0.00 | 0.00 | 0.00 | 53 | |
| 20260502022830 | 43 | 198 | 0.0 | 0.0 | 0.00 | 0.00 | 0.00 | 55 | |
| 20260502022326 | 44 | 198 | 0.0 | 0.0 | 0.00 | 0.00 | 0.00 | 52 | |
| 20260502021823 | 44 | 198 | 0.0 | 1.0 | 0.00 | 0.00 | 0.00 | 52 | |
| 20260502021320 | 44 | 197 | 1.0 | 1.0 | 0.00 | 0.00 | 0.00 | 52 | |
| 20260502020817 | 44 | 200 | 0.0 | 0.0 | 0.00 | 0.00 | 0.00 | 50 | |
| 20260502020315 | 44 | 197 | 1.0 | 1.0 | 0.00 | 0.00 | 0.00 | 50 | |
| 20260502015812 | 45 | 194 | 1.0 | 1.0 | 0.00 | 0.00 | 0.00 | 50 | |
| 20260502015308 | 45 | 194 | 2.0 | 2.0 | 0.00 | 0.00 | 0.00 | 49 | |
| 20260502014806 | 46 | 202 | 1.0 | 1.0 | 0.00 | 0.00 | 0.00 | 48 | |
| 20260502014303 | 46 | 202 | 0.0 | 0.0 | 0.00 | 0.00 | 0.00 | 48 | |
| 20260502013759 | 46 | 202 | 0.0 | 0.0 | 0.00 | 0.00 | 0.00 | 48 | |
| 20260502013254 | 46 | 202 | 0.0 | 0.0 | 0.00 | 0.00 | 0.00 | 48 | |
| 20260502012751 | 46 | 202 | 0.0 | 0.0 | 0.00 | 0.00 | 0.00 | 45 | |
| 20260502012249 | 46 | 202 | 0.0 | 0.0 | 0.00 | 0.00 | 0.00 | 46 | |
| 20260502011746 | 46 | 202 | 0.0 | 0.0 | 0.00 | 0.00 | 0.00 | 46 | |
| 20260502011242 | 47 | 202 | 0.0 | 0.0 | 0.00 | 0.00 | 0.00 | 44 | |
| 20260502010740 | 47 | 202 | 0.0 | 0.0 | 0.00 | 0.00 | 0.00 | 43 | |
| 20260502010236 | 47 | 213 | 1.0 | 1.0 | 0.00 | 0.00 | 0.00 | 42 | |
| 20260502005733 | 48 | 202 | 0.0 | 0.0 | 0.00 | 0.00 | 0.00 | 41 | |
| 20260502005231 | 48 | 202 | 0.0 | 1.0 | 0.00 | 0.00 | 0.00 | 40 | |
| 20260502004727 | 48 | 205 | 1.0 | 1.0 | 0.00 | 0.00 | 0.00 | 39 | |
| 20260502004224 | 49 | 208 | 0.0 | 1.0 | 0.00 | 0.00 | 0.00 | 39 | |
| 20260502003722 | 49 | 206 | 1.0 | 2.0 | 0.00 | 0.00 | 0.00 | 39 | |
| 20260502003219 | 49 | 204 | 0.0 | 1.0 | 0.00 | 0.00 | 0.00 | 39 | |
| 20260502002714 | 49 | 203 | 0.0 | 1.0 | 0.00 | 0.00 | 0.00 | 40 | |
| 20260502002213 | 50 | 202 | 0.0 | 1.0 | 0.00 | 0.00 | 0.00 | 38 | |
| 20260502001709 | 50 | 202 | 0.0 | 1.0 | 0.00 | 0.00 | 0.00 | 39 | |
| 20260502001208 | 50 | 217 | 0.0 | 1.0 | 0.00 | 0.00 | 0.00 | 37 | |
| 20260502000704 | 50 | 209 | 0.0 | 2.0 | 0.00 | 0.00 | 0.00 | 37 | |
| 20260502000203 | 49 | 215 | 1.0 | 1.0 | 0.00 | 0.00 | 0.00 | 37 | |
| 20260501235658 | 50 | 212 | 1.0 | 2.0 | 0.00 | 0.00 | 0.00 | 35 | |
| 20260501235154 | 51 | 207 | 1.0 | 2.0 | 0.00 | 0.00 | 0.00 | 34 | |
| 20260501234650 | 51 | 211 | 1.0 | 2.0 | 0.00 | 0.00 | 0.00 | 33 | |
| 20260501234147 | 51 | 202 | 3.0 | 5.0 | 0.00 | 0.00 | 0.00 | 33 | |
| 20260501233645 | 51 | 202 | 3.0 | 3.0 | 0.00 | 0.00 | 0.00 | 36 | |
| 20260501233142 | 51 | 226 | 1.0 | 2.0 | 0.00 | 0.00 | 0.00 | 34 | |
| 20260501232638 | 52 | 214 | 1.0 | 3.0 | 0.00 | 0.00 | 0.00 | 31 | |
| 20260501232136 | 52 | 201 | 1.0 | 5.0 | 0.00 | 0.00 | 0.00 | 30 | |
| 20260501231633 | 52 | 209 | 2.0 | 3.0 | 0.00 | 0.00 | 0.00 | 31 | |
| 20260501231131 | 52 | 202 | 1.0 | 2.0 | 0.00 | 0.00 | 0.00 | 35 | |
| 20260501230630 | 52 | 212 | 1.0 | 2.0 | 0.00 | 0.00 | 0.00 | 37 | |
| 20260501230127 | 53 | 198 | 2.0 | 3.0 | 0.00 | 0.00 | 0.00 | 35 | |
| 20260501225625 | 53 | 203 | 1.0 | 3.0 | 0.00 | 0.00 | 0.00 | 33 | |
| 20260501225121 | 53 | 202 | 1.0 | 3.0 | 0.00 | 0.00 | 0.00 | 34 | |
| 20260501224618 | 52 | 228 | 3.0 | 3.0 | 0.00 | 0.00 | 0.00 | 34 | |
| 20260501224115 | 52 | 211 | 2.0 | 2.0 | 0.00 | 0.00 | 0.00 | 35 | |
| 20260501223611 | 51 | 205 | 1.0 | 2.0 | 0.00 | 0.00 | 0.00 | 36 | |
| 20260501223108 | 52 | 219 | 2.0 | 2.0 | 0.00 | 0.00 | 0.00 | 34 | |
| 20260501222604 | 52 | 231 | 2.0 | 3.0 | 0.00 | 0.00 | 0.00 | 33 | |
| 20260501222101 | 52 | 222 | 2.0 | 3.0 | 0.00 | 0.00 | 0.00 | 34 | |
| 20260501221558 | 52 | 213 | 1.0 | 3.0 | 0.00 | 0.00 | 0.00 | 34 | |
| 20260501221055 | 52 | 214 | 2.0 | 3.0 | 0.00 | 0.00 | 0.00 | 33 | |
| 20260501220553 | 51 | 213 | 3.0 | 3.0 | 0.00 | 0.00 | 0.00 | 35 | |
| 20260501220050 | 51 | 209 | 1.0 | 2.0 | 0.00 | 0.00 | 0.00 | 35 | |
| 20260501215546 | 53 | 197 | 3.0 | 3.0 | 0.00 | 0.00 | 0.00 | 33 | |
| 20260501215041 | 54 | 206 | 1.0 | 5.0 | 0.00 | 0.00 | 0.00 | 32 | |
| 20260501214537 | 54 | 210 | 1.0 | 2.0 | 0.00 | 0.00 | 0.00 | 33 |